createdAt,value
2018-09-29T00:00:58.257Z,8.18
2018-09-29T00:01:58.256Z,8.15
2018-09-29T00:02:58.246Z,8.04
2018-09-29T00:03:58.247Z,8.18
2018-09-29T00:04:58.267Z,8.11
2018-09-29T00:05:58.262Z,8.12
2018-09-29T00:06:58.267Z,8.02
2018-09-29T00:07:58.282Z,8.11
2018-09-29T00:08:58.263Z,8.11
2018-09-29T00:09:58.271Z,8.12
2018-09-29T00:10:58.276Z,8.07
2018-09-29T00:11:58.270Z,8.05
2018-09-29T00:12:58.253Z,8.05
2018-09-29T00:13:58.242Z,8.01
2018-09-29T00:14:58.297Z,8.02
2018-09-29T00:15:58.268Z,8.07
2018-09-29T00:16:58.266Z,8.04
2018-09-29T00:17:58.266Z,8.05
2018-09-29T00:18:58.258Z,8.11
2018-09-29T00:19:58.246Z,8.10
2018-09-29T00:20:58.255Z,8.05
2018-09-29T00:21:58.253Z,8.11
2018-09-29T00:22:58.268Z,8.05
2018-09-29T00:23:58.260Z,8.07
2018-09-29T00:24:58.263Z,8.04
2018-09-29T00:25:58.278Z,8.04
2018-09-29T00:26:58.275Z,8.01
2018-09-29T00:27:58.253Z,8.01
2018-09-29T00:28:58.253Z,8.01
2018-09-29T00:29:58.265Z,8.01
2018-09-29T00:30:58.246Z,8.04
2018-09-29T00:31:58.253Z,7.93
2018-09-29T00:32:58.269Z,7.86
2018-09-29T00:33:58.250Z,7.87
2018-09-29T00:34:58.342Z,7.90
2018-09-29T00:35:58.281Z,7.80
2018-09-29T00:36:58.300Z,7.87
2018-09-29T00:37:58.317Z,7.85
2018-09-29T00:38:58.265Z,7.87
2018-09-29T00:39:58.257Z,7.89
2018-09-29T00:40:58.259Z,7.87
2018-09-29T00:41:58.286Z,7.87
2018-09-29T00:42:58.255Z,7.85
2018-09-29T00:43:58.257Z,7.75
2018-09-29T00:44:58.259Z,7.82
2018-09-29T00:45:58.258Z,7.74
2018-09-29T00:46:58.269Z,7.80
2018-09-29T00:47:58.249Z,7.87
2018-09-29T00:48:58.248Z,7.86
2018-09-29T00:49:58.253Z,7.82
2018-09-29T00:50:58.270Z,7.69
2018-09-29T00:51:58.271Z,7.80
2018-09-29T00:52:58.274Z,7.74
2018-09-29T00:53:58.275Z,7.74
2018-09-29T00:54:58.258Z,7.77
2018-09-29T00:55:58.261Z,7.72
2018-09-29T00:56:58.305Z,7.57
2018-09-29T00:57:58.265Z,7.67
2018-09-29T00:58:58.266Z,7.57
2018-09-29T00:59:58.261Z,7.63
2018-09-29T01:00:58.266Z,7.69
2018-09-29T01:01:58.257Z,7.71
2018-09-29T01:02:58.281Z,7.77
2018-09-29T01:03:58.249Z,7.72
2018-09-29T01:04:58.267Z,7.79
2018-09-29T01:05:58.256Z,7.80
2018-09-29T01:06:58.264Z,7.71
2018-09-29T01:07:58.294Z,7.68
2018-09-29T01:08:58.292Z,7.74
2018-09-29T01:09:58.279Z,7.74
2018-09-29T01:10:58.240Z,7.71
2018-09-29T01:11:58.250Z,7.71
2018-09-29T01:12:58.266Z,7.71
2018-09-29T01:13:58.263Z,7.68
2018-09-29T01:14:58.243Z,7.74
2018-09-29T01:15:58.268Z,7.69
2018-09-29T01:16:58.251Z,7.67
2018-09-29T01:17:58.270Z,7.52
2018-09-29T01:18:58.309Z,7.49
2018-09-29T01:19:58.251Z,7.52
2018-09-29T01:20:58.255Z,7.55
2018-09-29T01:21:58.270Z,7.45
2018-09-29T01:22:58.265Z,7.53
2018-09-29T01:23:58.255Z,7.46
2018-09-29T01:24:58.245Z,7.43
2018-09-29T01:25:58.293Z,7.43
2018-09-29T01:26:58.278Z,7.43
2018-09-29T01:27:58.252Z,7.32
2018-09-29T01:28:58.263Z,7.43
2018-09-29T01:29:58.256Z,7.37
2018-09-29T01:30:58.270Z,7.37
2018-09-29T01:31:58.264Z,7.35
2018-09-29T01:32:58.290Z,7.39
2018-09-29T01:33:58.254Z,7.43
2018-09-29T01:34:58.293Z,7.30
2018-09-29T01:35:58.257Z,7.42
2018-09-29T01:36:58.267Z,7.39
2018-09-29T01:37:58.289Z,7.39
2018-09-29T01:38:58.246Z,7.43
2018-09-29T01:39:58.272Z,7.45
2018-09-29T01:40:58.254Z,7.43
2018-09-29T01:41:58.246Z,7.48
2018-09-29T01:42:58.240Z,7.50
2018-09-29T01:43:58.245Z,7.43
2018-09-29T01:44:58.244Z,7.43
2018-09-29T01:45:58.263Z,7.42
2018-09-29T01:46:58.260Z,7.37
2018-09-29T01:47:58.250Z,7.40
2018-09-29T01:48:58.260Z,7.43
2018-09-29T01:49:58.265Z,7.40
2018-09-29T01:50:58.256Z,7.40
2018-09-29T01:51:58.268Z,7.39
2018-09-29T01:52:58.275Z,7.48
2018-09-29T01:53:58.270Z,7.34
2018-09-29T01:54:58.257Z,7.34
2018-09-29T01:55:58.244Z,7.20
2018-09-29T01:56:58.237Z,7.17
2018-09-29T01:57:58.241Z,7.09
2018-09-29T01:58:58.246Z,7.17
2018-09-29T01:59:58.245Z,7.10
2018-09-29T02:00:58.242Z,7.03
2018-09-29T02:01:58.276Z,7.10
2018-09-29T02:02:58.272Z,7.13
2018-09-29T02:03:58.245Z,7.10
2018-09-29T02:04:58.238Z,7.16
2018-09-29T02:05:58.271Z,7.07
2018-09-29T02:06:58.244Z,6.97
2018-09-29T02:07:58.253Z,7.06
2018-09-29T02:08:58.253Z,7.02
2018-09-29T02:09:58.243Z,6.85
2018-09-29T02:10:58.243Z,6.98
2018-09-29T02:11:58.245Z,6.98
2018-09-29T02:12:58.253Z,7.03
2018-09-29T02:13:58.264Z,7.02
2018-09-29T02:14:58.256Z,7.02
2018-09-29T02:15:58.272Z,6.97
2018-09-29T02:16:58.243Z,7.03
2018-09-29T02:17:58.263Z,6.97
2018-09-29T02:18:58.276Z,7.12
2018-09-29T02:19:58.262Z,6.97
2018-09-29T02:20:58.260Z,6.99
2018-09-29T02:21:58.239Z,6.98
2018-09-29T02:22:58.244Z,6.94
2018-09-29T02:23:58.268Z,6.99
2018-09-29T02:24:58.240Z,7.02
2018-09-29T02:25:58.227Z,7.09
2018-09-29T02:26:58.258Z,7.06
2018-09-29T02:27:58.240Z,7.05
2018-09-29T02:28:58.318Z,7.02
2018-09-29T02:29:58.246Z,6.99
2018-09-29T02:30:58.245Z,6.84
2018-09-29T02:31:58.233Z,6.84
2018-09-29T02:32:58.247Z,6.77
2018-09-29T02:33:58.226Z,6.79
2018-09-29T02:34:58.229Z,6.84
2018-09-29T02:35:58.241Z,6.87
2018-09-29T02:36:58.234Z,6.87
2018-09-29T02:37:58.224Z,6.81
2018-09-29T02:38:58.239Z,6.97
2018-09-29T02:39:58.234Z,7.09
2018-09-29T02:40:58.249Z,6.95
2018-09-29T02:41:58.240Z,6.99
2018-09-29T02:42:58.241Z,6.87
2018-09-29T02:43:58.274Z,6.99
2018-09-29T02:44:58.232Z,6.97
2018-09-29T02:45:58.250Z,6.98
2018-09-29T02:46:58.253Z,6.98
2018-09-29T02:47:58.259Z,7.06
2018-09-29T02:48:58.249Z,6.91
2018-09-29T02:49:58.233Z,6.94
2018-09-29T02:50:58.232Z,6.95
2018-09-29T02:51:58.229Z,6.85
2018-09-29T02:52:58.230Z,6.87
2018-09-29T02:53:58.229Z,6.87
2018-09-29T02:54:58.231Z,6.81
2018-09-29T02:55:58.254Z,6.81
2018-09-29T02:56:58.242Z,6.80
2018-09-29T02:57:58.227Z,6.77
2018-09-29T02:58:58.224Z,6.74
2018-09-29T02:59:58.235Z,6.66
2018-09-29T03:00:58.221Z,6.59
2018-09-29T03:01:58.214Z,6.56
2018-09-29T03:02:58.219Z,6.56
2018-09-29T03:03:58.224Z,6.52
2018-09-29T03:04:58.217Z,6.64
2018-09-29T03:05:58.219Z,6.62
2018-09-29T03:06:58.219Z,6.64
2018-09-29T03:07:58.217Z,6.54
2018-09-29T03:08:58.235Z,6.44
2018-09-29T03:09:58.236Z,6.38
2018-09-29T03:10:59.103Z,6.36
2018-09-29T03:11:58.236Z,6.44
2018-09-29T03:12:58.216Z,6.38
2018-09-29T03:13:58.236Z,6.41
2018-09-29T03:14:58.245Z,6.41
2018-09-29T03:15:58.225Z,6.43
2018-09-29T03:16:58.225Z,6.41
2018-09-29T03:17:58.244Z,6.40
2018-09-29T03:18:58.218Z,6.37
2018-09-29T03:19:58.221Z,6.46
2018-09-29T03:20:58.211Z,6.48
2018-09-29T03:21:58.214Z,6.40
2018-09-29T03:22:58.242Z,6.33
2018-09-29T03:23:58.218Z,6.44
2018-09-29T03:24:58.242Z,6.44
2018-09-29T03:25:58.231Z,6.48
2018-09-29T03:26:58.205Z,6.43
2018-09-29T03:27:58.225Z,6.37
2018-09-29T03:28:58.292Z,6.31
2018-09-29T03:29:58.216Z,6.25
2018-09-29T03:30:58.202Z,6.40
2018-09-29T03:31:58.338Z,6.40
2018-09-29T03:32:58.214Z,6.36
2018-09-29T03:33:58.223Z,6.41
2018-09-29T03:34:58.217Z,6.37
2018-09-29T03:35:58.263Z,6.48
2018-09-29T03:36:58.198Z,6.48
2018-09-29T03:37:58.224Z,6.52
2018-09-29T03:38:58.207Z,6.56
2018-09-29T03:39:58.267Z,6.49
2018-09-29T03:40:58.205Z,6.43
2018-09-29T03:41:58.198Z,6.41
2018-09-29T03:42:58.194Z,6.38
2018-09-29T03:43:58.212Z,6.19
2018-09-29T03:44:58.221Z,6.27
2018-09-29T03:45:58.200Z,6.25
2018-09-29T03:46:58.192Z,6.28
2018-09-29T03:47:58.209Z,6.41
2018-09-29T03:48:58.192Z,6.33
2018-09-29T03:49:58.208Z,6.34
2018-09-29T03:50:58.220Z,6.37
2018-09-29T03:51:58.197Z,6.28
2018-09-29T03:52:58.217Z,6.18
2018-09-29T03:53:58.195Z,6.21
2018-09-29T03:54:58.184Z,6.21
2018-09-29T03:55:58.210Z,6.31
2018-09-29T03:56:58.216Z,6.28
2018-09-29T03:57:58.200Z,6.34
2018-09-29T03:58:58.188Z,6.36
2018-09-29T03:59:58.208Z,6.40
2018-09-29T04:00:58.192Z,6.37
2018-09-29T04:01:58.201Z,6.40
2018-09-29T04:02:58.217Z,6.21
2018-09-29T04:03:58.202Z,6.12
2018-09-29T04:04:58.187Z,6.14
2018-09-29T04:05:58.183Z,6.17
2018-09-29T04:06:58.184Z,6.22
2018-09-29T04:07:58.190Z,6.25
2018-09-29T04:08:58.233Z,6.28
2018-09-29T04:09:58.201Z,6.28
2018-09-29T04:10:58.184Z,6.21
2018-09-29T04:11:58.183Z,6.17
2018-09-29T04:12:58.185Z,6.12
2018-09-29T04:13:58.257Z,6.00
2018-09-29T04:14:58.191Z,6.01
2018-09-29T04:15:58.190Z,5.96
2018-09-29T04:16:58.195Z,5.99
2018-09-29T04:17:58.208Z,6.01
2018-09-29T04:18:58.201Z,6.04
2018-09-29T04:19:58.182Z,6.04
2018-09-29T04:20:58.205Z,6.12
2018-09-29T04:21:58.187Z,6.12
2018-09-29T04:22:58.200Z,6.12
2018-09-29T04:23:58.174Z,6.04
2018-09-29T04:24:58.172Z,6.19
2018-09-29T04:25:58.178Z,6.18
2018-09-29T04:26:58.189Z,6.25
2018-09-29T04:27:58.209Z,6.27
2018-09-29T04:28:58.188Z,6.19
2018-09-29T04:29:58.211Z,6.28
2018-09-29T04:30:58.210Z,6.27
2018-09-29T04:31:58.171Z,6.33
2018-09-29T04:32:58.179Z,6.18
2018-09-29T04:33:58.182Z,6.33
2018-09-29T04:34:58.186Z,6.31
2018-09-29T04:35:58.167Z,6.17
2018-09-29T04:36:58.186Z,6.25
2018-09-29T04:37:58.168Z,6.28
2018-09-29T04:38:58.175Z,6.31
2018-09-29T04:39:58.177Z,6.22
2018-09-29T04:40:58.174Z,6.33
2018-09-29T04:41:58.175Z,6.28
2018-09-29T04:42:58.250Z,6.22
2018-09-29T04:43:58.184Z,6.18
2018-09-29T04:44:58.165Z,6.15
2018-09-29T04:45:58.176Z,6.08
2018-09-29T04:46:58.173Z,5.99
2018-09-29T04:47:58.155Z,5.99
2018-09-29T04:48:58.193Z,6.03
2018-09-29T04:49:58.159Z,6.03
2018-09-29T04:50:58.153Z,6.04
2018-09-29T04:51:58.165Z,6.04
2018-09-29T04:52:58.171Z,6.06
2018-09-29T04:53:58.173Z,6.04
2018-09-29T04:54:58.184Z,6.12
2018-09-29T04:55:58.147Z,6.17
2018-09-29T04:56:58.192Z,6.11
2018-09-29T04:57:58.267Z,6.19
2018-09-29T04:58:58.179Z,6.22
2018-09-29T04:59:58.168Z,6.36
2018-09-29T05:00:58.173Z,6.19
2018-09-29T05:01:58.157Z,6.22
2018-09-29T05:02:58.185Z,6.30
2018-09-29T05:03:58.207Z,6.25
2018-09-29T05:04:58.155Z,6.27
2018-09-29T05:05:58.143Z,6.30
2018-09-29T05:06:58.159Z,6.34
2018-09-29T05:07:58.135Z,6.33
2018-09-29T05:08:58.171Z,6.27
2018-09-29T05:09:58.150Z,6.33
2018-09-29T05:10:58.167Z,6.31
2018-09-29T05:11:58.147Z,6.37
2018-09-29T05:12:58.154Z,6.37
2018-09-29T05:13:58.196Z,6.37
2018-09-29T05:14:58.152Z,6.28
2018-09-29T05:15:58.151Z,6.21
2018-09-29T05:16:58.145Z,6.22
2018-09-29T05:17:58.149Z,6.19
2018-09-29T05:18:58.143Z,6.19
2018-09-29T05:19:58.140Z,6.18
2018-09-29T05:20:58.149Z,6.21
2018-09-29T05:21:58.154Z,6.22
2018-09-29T05:22:58.156Z,6.08
2018-09-29T05:23:58.149Z,6.03
2018-09-29T05:24:58.148Z,6.00
2018-09-29T05:25:58.141Z,6.04
2018-09-29T05:26:58.136Z,6.01
2018-09-29T05:27:58.141Z,6.03
2018-09-29T05:28:58.151Z,6.01
2018-09-29T05:29:58.135Z,6.09
2018-09-29T05:30:58.167Z,6.19
2018-09-29T05:31:58.134Z,6.19
2018-09-29T05:32:58.140Z,6.04
2018-09-29T05:33:58.133Z,6.12
2018-09-29T05:34:58.140Z,6.12
2018-09-29T05:35:58.151Z,6.11
2018-09-29T05:36:58.150Z,6.12
2018-09-29T05:37:58.129Z,6.19
2018-09-29T05:38:58.140Z,6.25
2018-09-29T05:39:58.143Z,6.38
2018-09-29T05:40:58.122Z,6.49
2018-09-29T05:41:58.128Z,6.46
2018-09-29T05:42:58.127Z,6.56
2018-09-29T05:43:58.161Z,6.58
2018-09-29T05:44:58.144Z,6.59
2018-09-29T05:45:58.121Z,6.73
2018-09-29T05:46:58.118Z,6.80
2018-09-29T05:47:58.115Z,6.81
2018-09-29T05:48:58.147Z,6.80
2018-09-29T05:49:58.130Z,6.81
2018-09-29T05:50:58.110Z,6.87
2018-09-29T05:51:58.118Z,6.91
2018-09-29T05:52:58.121Z,6.89
2018-09-29T05:53:58.145Z,6.85
2018-09-29T05:54:58.113Z,6.87
2018-09-29T05:55:58.116Z,6.97
2018-09-29T05:56:58.125Z,6.88
2018-09-29T05:57:59.690Z,6.85
2018-09-29T05:58:58.122Z,6.89
2018-09-29T05:59:58.186Z,6.91
2018-09-29T06:00:58.126Z,6.91
2018-09-29T06:01:58.110Z,6.99
2018-09-29T06:02:58.123Z,7.10
2018-09-29T06:03:58.105Z,7.23
2018-09-29T06:04:58.111Z,7.24
2018-09-29T06:05:58.107Z,7.24
2018-09-29T06:06:58.128Z,7.31
2018-09-29T06:07:58.109Z,7.37
2018-09-29T06:08:58.117Z,7.34
2018-09-29T06:09:58.133Z,7.30
2018-09-29T06:10:58.132Z,7.45
2018-09-29T06:11:58.126Z,7.46
2018-09-29T06:12:58.101Z,7.50
2018-09-29T06:13:58.131Z,7.60
2018-09-29T06:14:58.094Z,7.60
2018-09-29T06:15:58.112Z,7.79
2018-09-29T06:16:58.103Z,7.74
2018-09-29T06:17:58.104Z,7.85
2018-09-29T06:18:58.107Z,7.77
2018-09-29T06:19:58.095Z,7.82
2018-09-29T06:20:58.149Z,7.89
2018-09-29T06:21:58.140Z,7.97
2018-09-29T06:22:58.125Z,7.98
2018-09-29T06:23:58.099Z,8.08
2018-09-29T06:24:58.091Z,8.08
2018-09-29T06:25:58.094Z,8.20
2018-09-29T06:26:58.112Z,8.22
2018-09-29T06:27:58.159Z,8.25
2018-09-29T06:28:58.099Z,8.38
2018-09-29T06:29:58.092Z,8.44
2018-09-29T06:30:58.114Z,8.50
2018-09-29T06:31:58.130Z,8.59
2018-09-29T06:32:58.109Z,8.62
2018-09-29T06:33:58.114Z,8.59
2018-09-29T06:34:58.106Z,8.73
2018-09-29T06:35:58.108Z,8.79
2018-09-29T06:36:58.153Z,8.87
2018-09-29T06:37:58.109Z,9.01
2018-09-29T06:38:58.091Z,8.94
2018-09-29T06:39:58.101Z,9.08
2018-09-29T06:40:58.101Z,8.99
2018-09-29T06:41:58.107Z,9.05
2018-09-29T06:42:58.141Z,9.11
2018-09-29T06:43:58.088Z,9.20
2018-09-29T06:44:58.113Z,9.24
2018-09-29T06:45:58.085Z,9.31
2018-09-29T06:46:58.104Z,9.39
2018-09-29T06:47:58.127Z,9.47
2018-09-29T06:48:58.115Z,9.39
2018-09-29T06:49:58.105Z,9.48
2018-09-29T06:50:58.094Z,9.47
2018-09-29T06:51:58.121Z,9.43
2018-09-29T06:52:58.105Z,9.56
2018-09-29T06:53:58.109Z,9.51
2018-09-29T06:54:58.117Z,9.57
2018-09-29T06:55:58.091Z,9.69
2018-09-29T06:56:58.112Z,9.87
2018-09-29T06:57:58.099Z,10.01
2018-09-29T06:58:58.131Z,10.27
2018-09-29T06:59:58.096Z,10.42
2018-09-29T07:00:58.104Z,11.15
2018-09-29T07:01:58.097Z,11.78
2018-09-29T07:02:58.106Z,12.60
2018-09-29T07:03:58.120Z,13.39
2018-09-29T07:04:58.103Z,13.92
2018-09-29T07:05:58.094Z,14.39
2018-09-29T07:06:58.100Z,14.86
2018-09-29T07:07:58.129Z,15.28
2018-09-29T07:08:58.099Z,15.80
2018-09-29T07:09:58.116Z,16.08
2018-09-29T07:10:58.117Z,16.05
2018-09-29T07:11:58.110Z,16.15
2018-09-29T07:12:58.157Z,15.89
2018-09-29T07:13:58.130Z,16.33
2018-09-29T07:14:58.125Z,16.38
2018-09-29T07:15:58.124Z,16.56
2018-09-29T07:16:58.133Z,16.31
2018-09-29T07:17:58.120Z,16.50
2018-09-29T07:18:58.151Z,16.89
2018-09-29T07:19:58.133Z,17.23
2018-09-29T07:20:58.122Z,17.71
2018-09-29T07:21:58.181Z,17.70
2018-09-29T07:22:58.131Z,17.25
2018-09-29T07:23:58.155Z,16.85
2018-09-29T07:24:58.152Z,16.48
2018-09-29T07:25:58.125Z,17.01
2018-09-29T07:26:58.127Z,17.44
2018-09-29T07:27:58.155Z,17.52
2018-09-29T07:28:58.180Z,17.03
2018-09-29T07:29:58.178Z,16.61
2018-09-29T07:30:58.146Z,16.63
2018-09-29T07:31:58.171Z,16.86
2018-09-29T07:32:58.144Z,16.82
2018-09-29T07:33:58.157Z,16.88
2018-09-29T07:34:58.176Z,17.36
2018-09-29T07:35:58.186Z,17.59
2018-09-29T07:36:58.166Z,17.75
2018-09-29T07:37:58.161Z,17.63
2018-09-29T07:38:58.173Z,16.93
2018-09-29T07:39:58.160Z,16.34
2018-09-29T07:40:58.202Z,16.45
2018-09-29T07:41:58.198Z,16.24
2018-09-29T07:42:58.181Z,16.91
2018-09-29T07:43:58.183Z,17.63
2018-09-29T07:44:58.205Z,18.18
2018-09-29T07:45:58.183Z,18.20
2018-09-29T07:46:58.203Z,18.37
2018-09-29T07:47:58.203Z,18.35
2018-09-29T07:48:58.213Z,17.97
2018-09-29T07:49:58.199Z,18.23
2018-09-29T07:50:58.215Z,18.10
2018-09-29T07:51:58.225Z,17.93
2018-09-29T07:52:58.210Z,17.97
2018-09-29T07:53:58.226Z,18.03
2018-09-29T07:54:58.216Z,18.14
2018-09-29T07:55:58.314Z,18.25
2018-09-29T07:56:58.217Z,18.26
2018-09-29T07:57:58.231Z,18.69
2018-09-29T07:58:58.215Z,18.62
2018-09-29T07:59:58.226Z,18.90
2018-09-29T08:00:58.225Z,19.76
2018-09-29T08:01:58.256Z,19.91
2018-09-29T08:02:58.246Z,19.78
2018-09-29T08:03:58.257Z,19.39
2018-09-29T08:04:58.246Z,18.95
2018-09-29T08:05:58.271Z,18.90
2018-09-29T08:06:58.255Z,19.14
2018-09-29T08:07:58.282Z,19.58
2018-09-29T08:08:58.281Z,19.40
2018-09-29T08:09:58.283Z,19.41
2018-09-29T08:10:58.277Z,18.44
2018-09-29T08:11:58.281Z,18.85
2018-09-29T08:12:58.297Z,18.44
2018-09-29T08:13:58.338Z,18.58
2018-09-29T08:14:58.290Z,18.95
2018-09-29T08:15:58.302Z,19.13
2018-09-29T08:16:58.292Z,19.25
2018-09-29T08:17:58.323Z,19.78
2018-09-29T08:18:58.332Z,20.14
2018-09-29T08:19:58.332Z,20.14
2018-09-29T08:20:58.351Z,20.06
2018-09-29T08:21:58.338Z,19.86
2018-09-29T08:22:58.344Z,20.31
2018-09-29T08:23:58.357Z,21.07
2018-09-29T08:24:58.354Z,20.70
2018-09-29T08:25:58.361Z,18.72
2018-09-29T08:26:58.345Z,19.07
2018-09-29T08:27:58.355Z,19.59
2018-09-29T08:28:58.388Z,20.03
2018-09-29T08:29:58.372Z,19.43
2018-09-29T08:30:58.398Z,19.59
2018-09-29T08:31:58.417Z,19.74
2018-09-29T08:32:59.195Z,20.06
2018-09-29T08:33:58.406Z,20.97
2018-09-29T08:34:58.419Z,21.28
2018-09-29T08:35:58.412Z,21.74
2018-09-29T08:36:58.412Z,21.80
2018-09-29T08:37:58.417Z,21.25
2018-09-29T08:38:58.448Z,19.69
2018-09-29T08:39:58.427Z,19.18
2018-09-29T08:40:58.447Z,19.46
2018-09-29T08:41:58.466Z,20.24
2018-09-29T08:42:58.473Z,20.32
2018-09-29T08:43:58.451Z,19.92
2018-09-29T08:44:58.508Z,19.78
2018-09-29T08:45:58.523Z,20.54
2018-09-29T08:46:58.471Z,20.39
2018-09-29T08:47:58.528Z,20.73
2018-09-29T08:48:58.510Z,19.61
2018-09-29T08:49:58.515Z,19.25
2018-09-29T08:50:58.504Z,20.03
2018-09-29T08:51:58.514Z,20.57
2018-09-29T08:52:58.525Z,20.84
2018-09-29T08:53:58.522Z,20.80
2018-09-29T08:54:58.534Z,20.92
2018-09-29T08:55:58.537Z,21.09
2018-09-29T08:56:58.583Z,21.09
2018-09-29T08:57:58.551Z,20.28
2018-09-29T08:58:58.565Z,19.66
2018-09-29T08:59:58.628Z,19.58
2018-09-29T09:00:58.567Z,19.80
2018-09-29T09:01:58.618Z,20.28
2018-09-29T09:02:58.610Z,20.73
2018-09-29T09:03:58.679Z,20.61
2018-09-29T09:04:58.686Z,20.29
2018-09-29T09:05:58.642Z,20.11
2018-09-29T09:06:58.634Z,20.79
2018-09-29T09:07:58.644Z,21.58
2018-09-29T09:08:58.677Z,22.62
2018-09-29T09:09:58.695Z,21.79
2018-09-29T09:10:58.669Z,21.04
2018-09-29T09:11:58.658Z,21.49
2018-09-29T09:12:58.690Z,21.75
2018-09-29T09:13:58.696Z,21.44
2018-09-29T09:14:58.716Z,20.82
2018-09-29T09:15:58.752Z,20.06
2018-09-29T09:16:58.752Z,20.55
2018-09-29T09:17:58.721Z,20.55
2018-09-29T09:18:58.721Z,20.35
2018-09-29T09:19:58.749Z,20.23
2018-09-29T09:20:58.761Z,20.17
2018-09-29T09:21:58.758Z,20.16
2018-09-29T09:22:58.764Z,20.61
2018-09-29T09:23:58.828Z,21.16
2018-09-29T09:24:58.779Z,21.27
2018-09-29T09:25:58.786Z,21.68
2018-09-29T09:26:58.807Z,21.62
2018-09-29T09:27:58.822Z,21.62
2018-09-29T09:28:58.816Z,21.13
2018-09-29T09:29:58.926Z,20.26
2018-09-29T09:30:58.838Z,20.36
2018-09-29T09:31:58.852Z,20.52
2018-09-29T09:32:58.872Z,21.12
2018-09-29T09:33:58.873Z,20.95
2018-09-29T09:34:58.880Z,20.97
2018-09-29T09:35:58.888Z,21.58
2018-09-29T09:36:58.889Z,21.69
2018-09-29T09:37:58.897Z,21.56
2018-09-29T09:38:58.938Z,21.69
2018-09-29T09:39:58.921Z,21.83
2018-09-29T09:40:58.946Z,22.06
2018-09-29T09:41:58.967Z,20.82
2018-09-29T09:42:58.950Z,20.69
2018-09-29T09:43:58.958Z,21.88
2018-09-29T09:44:58.982Z,21.47
2018-09-29T09:45:58.986Z,21.14
2018-09-29T09:46:58.993Z,20.70
2018-09-29T09:47:58.993Z,20.82
2018-09-29T09:48:58.999Z,20.74
2018-09-29T09:49:59.029Z,20.14
2018-09-29T09:50:59.042Z,20.10
2018-09-29T09:51:59.051Z,20.39
2018-09-29T09:52:59.052Z,20.84
2018-09-29T09:53:59.050Z,21.50
2018-09-29T09:54:59.052Z,21.84
2018-09-29T09:55:59.159Z,21.90
2018-09-29T09:56:59.074Z,21.34
2018-09-29T09:57:59.116Z,21.25
2018-09-29T09:58:59.090Z,21.65
2018-09-29T09:59:59.100Z,21.92
2018-09-29T10:00:59.132Z,22.40
2018-09-29T10:01:59.167Z,22.36
2018-09-29T10:02:59.183Z,22.61
2018-09-29T10:03:59.145Z,23.12
2018-09-29T10:04:59.175Z,23.47
2018-09-29T10:05:59.180Z,22.60
2018-09-29T10:06:59.169Z,22.02
2018-09-29T10:07:59.270Z,21.65
2018-09-29T10:08:59.224Z,21.04
2018-09-29T10:09:59.222Z,21.04
2018-09-29T10:10:59.237Z,21.31
2018-09-29T10:11:59.222Z,21.67
2018-09-29T10:12:59.261Z,20.69
2018-09-29T10:13:59.258Z,21.03
2018-09-29T10:14:59.279Z,21.49
2018-09-29T10:15:59.291Z,21.54
2018-09-29T10:16:59.280Z,21.31
2018-09-29T10:17:59.299Z,20.50
2018-09-29T10:18:59.307Z,21.22
2018-09-29T10:19:59.307Z,21.24
2018-09-29T10:20:59.350Z,20.99
2018-09-29T10:21:59.395Z,21.22
2018-09-29T10:22:59.413Z,21.19
2018-09-29T10:23:59.364Z,21.38
2018-09-29T10:24:59.397Z,21.34
2018-09-29T10:25:59.378Z,21.46
2018-09-29T10:26:59.469Z,21.88
2018-09-29T10:27:59.426Z,20.73
2018-09-29T10:28:59.431Z,21.61
2018-09-29T10:29:59.461Z,22.22
2018-09-29T10:30:59.461Z,22.15
2018-09-29T10:31:59.553Z,20.67
2018-09-29T10:32:59.578Z,19.84
2018-09-29T10:33:59.533Z,19.91
2018-09-29T10:34:59.514Z,20.82
2018-09-29T10:35:59.540Z,20.24
2018-09-29T10:36:59.500Z,21.29
2018-09-29T10:37:59.519Z,21.38
2018-09-29T10:38:59.585Z,21.04
2018-09-29T10:39:59.540Z,21.13
2018-09-29T10:40:59.563Z,21.67
2018-09-29T10:41:59.565Z,20.76
2018-09-29T10:42:59.566Z,21.25
2018-09-29T10:43:59.634Z,21.01
2018-09-29T10:44:59.639Z,21.29
2018-09-29T10:45:59.664Z,21.92
2018-09-29T10:46:59.637Z,21.59
2018-09-29T10:47:59.639Z,21.86
2018-09-29T10:48:59.639Z,21.24
2018-09-29T10:49:59.671Z,21.38
2018-09-29T10:50:59.685Z,21.35
2018-09-29T10:51:59.677Z,19.84
2018-09-29T10:52:59.766Z,20.24
2018-09-29T10:53:59.752Z,20.58
2018-09-29T10:54:59.714Z,21.03
2018-09-29T10:55:59.750Z,20.48
2018-09-29T10:56:59.793Z,21.03
2018-09-29T10:57:59.800Z,21.52
2018-09-29T10:58:59.837Z,22.15
2018-09-29T10:59:59.776Z,22.47
2018-09-29T11:00:59.790Z,22.46
2018-09-29T11:01:59.825Z,22.47
2018-09-29T11:02:59.813Z,22.43
2018-09-29T11:03:59.832Z,22.62
2018-09-29T11:04:59.861Z,22.02
2018-09-29T11:05:59.860Z,20.50
2018-09-29T11:06:59.861Z,20.94
2018-09-29T11:07:59.893Z,20.29
2018-09-29T11:08:59.902Z,19.95
2018-09-29T11:09:59.902Z,20.18
2018-09-29T11:10:59.927Z,20.31
2018-09-29T11:11:59.946Z,19.98
2018-09-29T11:12:59.967Z,19.37
2018-09-29T11:13:59.962Z,19.14
2018-09-29T11:14:59.978Z,19.63
2018-09-29T11:16:00.017Z,19.84
2018-09-29T11:17:00.027Z,19.96
2018-09-29T11:18:00.013Z,20.11
2018-09-29T11:19:00.018Z,19.83
2018-09-29T11:20:00.040Z,19.44
2018-09-29T11:21:00.101Z,18.98
2018-09-29T11:22:00.063Z,19.21
2018-09-29T11:23:00.056Z,19.48
2018-09-29T11:24:00.063Z,18.82
2018-09-29T11:25:00.138Z,18.98
2018-09-29T11:26:00.098Z,19.19
2018-09-29T11:27:00.106Z,19.46
2018-09-29T11:28:00.126Z,19.51
2018-09-29T11:29:00.125Z,19.39
2018-09-29T11:30:00.205Z,19.04
2018-09-29T11:31:00.151Z,17.75
2018-09-29T11:32:00.138Z,17.59
2018-09-29T11:33:00.180Z,17.49
2018-09-29T11:34:00.180Z,17.07
2018-09-29T11:35:00.192Z,17.14
2018-09-29T11:36:00.213Z,17.51
2018-09-29T11:37:00.193Z,17.62
2018-09-29T11:38:00.217Z,17.43
2018-09-29T11:39:00.221Z,17.46
2018-09-29T11:40:00.226Z,17.52
2018-09-29T11:41:00.220Z,17.72
2018-09-29T11:42:00.246Z,17.90
2018-09-29T11:43:00.259Z,17.66
2018-09-29T11:44:00.295Z,17.58
2018-09-29T11:45:00.292Z,17.28
2018-09-29T11:46:00.253Z,17.15
2018-09-29T11:47:00.271Z,17.19
2018-09-29T11:48:00.274Z,17.22
2018-09-29T11:49:00.288Z,17.36
2018-09-29T11:50:00.264Z,17.44
2018-09-29T11:51:00.304Z,17.64
2018-09-29T11:52:00.322Z,17.49
2018-09-29T11:53:00.284Z,17.51
2018-09-29T11:54:00.303Z,17.49
2018-09-29T11:55:00.327Z,17.74
2018-09-29T11:56:00.299Z,17.79
2018-09-29T11:57:00.298Z,17.96
2018-09-29T11:58:00.332Z,18.02
2018-09-29T11:59:00.312Z,17.78
2018-09-29T12:00:00.360Z,17.25
2018-09-29T12:01:00.320Z,16.89
2018-09-29T12:02:00.377Z,16.73
2018-09-29T12:03:00.405Z,16.68
2018-09-29T12:04:00.338Z,16.52
2018-09-29T12:05:00.324Z,16.58
2018-09-29T12:06:00.358Z,16.75
2018-09-29T12:07:00.411Z,16.35
2018-09-29T12:08:00.393Z,16.05
2018-09-29T12:09:00.377Z,16.12
2018-09-29T12:10:00.363Z,16.14
2018-09-29T12:11:00.401Z,16.41
2018-09-29T12:12:00.349Z,16.31
2018-09-29T12:13:00.353Z,16.46
2018-09-29T12:14:00.447Z,16.71
2018-09-29T12:15:00.396Z,16.53
2018-09-29T12:16:00.422Z,16.76
2018-09-29T12:17:00.373Z,16.83
2018-09-29T12:18:00.427Z,16.86
2018-09-29T12:19:00.404Z,16.71
2018-09-29T12:20:00.420Z,16.60
2018-09-29T12:21:00.410Z,16.75
2018-09-29T12:22:00.373Z,16.88
2018-09-29T12:23:00.418Z,16.83
2018-09-29T12:24:00.421Z,16.83
2018-09-29T12:25:00.402Z,16.98
2018-09-29T12:26:00.399Z,16.98
2018-09-29T12:27:00.490Z,16.97
2018-09-29T12:28:00.416Z,17.00
2018-09-29T12:29:00.453Z,17.12
2018-09-29T12:30:00.461Z,16.83
2018-09-29T12:31:00.437Z,16.86
2018-09-29T12:32:00.437Z,16.88
2018-09-29T12:33:00.433Z,16.81
2018-09-29T12:34:00.409Z,16.82
2018-09-29T12:35:00.427Z,17.00
2018-09-29T12:36:00.438Z,17.00
2018-09-29T12:37:00.494Z,16.83
2018-09-29T12:38:00.424Z,16.86
2018-09-29T12:39:00.448Z,16.79
2018-09-29T12:40:00.445Z,16.81
2018-09-29T12:41:00.461Z,16.66
2018-09-29T12:42:00.448Z,16.76
2018-09-29T12:43:00.440Z,16.79
2018-09-29T12:44:00.483Z,16.68
2018-09-29T12:45:00.488Z,16.73
2018-09-29T12:46:00.469Z,16.53
2018-09-29T12:47:00.476Z,16.17
2018-09-29T12:48:00.447Z,16.21
2018-09-29T12:49:00.472Z,16.04
2018-09-29T12:50:00.462Z,16.11
2018-09-29T12:51:00.455Z,16.07
2018-09-29T12:52:00.688Z,16.27
2018-09-29T12:53:00.479Z,16.31
2018-09-29T12:54:00.472Z,16.21
2018-09-29T12:55:00.461Z,16.04
2018-09-29T12:56:00.491Z,15.92
2018-09-29T12:57:00.475Z,16.05
2018-09-29T12:58:00.486Z,16.30
2018-09-29T12:59:00.544Z,16.31
2018-09-29T13:00:00.485Z,16.09
2018-09-29T13:01:00.506Z,16.04
2018-09-29T13:02:00.501Z,15.93
2018-09-29T13:03:00.482Z,15.87
2018-09-29T13:04:00.526Z,16.02
2018-09-29T13:05:00.524Z,16.05
2018-09-29T13:06:00.521Z,16.08
2018-09-29T13:07:00.492Z,16.05